• Join FlightAware (Why Join?)
  • Login
  • US Flag 
02:47AM EST


 

Airport Tracker/Info


-or-


 

Live Flight TrackerFlight Track Log ✈ N600TR ✈ 17-Aug-2013 ✈ KTRI - KATL

Flight Track Log - Related Links

Times and Time Zones

All times are in EDT time to prevent confusion due to time zone crossing. See the N600TR flight status page for this flight to view local times or setup timezone preferences in your user account.

Time Position Orientation Groundspeed Altitude Reporting Facility
EDT Latitude Longitude Course Direction KTS MPH feet Rate Location/Type
08:01AM 36.3803 -82.5094 219° Southwest 242 278 4,600  Level Atlanta Center
08:02AM 36.3225 -82.5594 215° Southwest 284 327 7,100 2,700 Climbing Atlanta Center
08:03AM 36.2087 -82.6414 219° Southwest  Level FlightAware Approximate
08:03AM 36.2586 -82.6175 216° Southwest 290 334 10,000  Level Atlanta Center
08:04AM 36.1457 -82.7043 219° Southwest  Level FlightAware Approximate
08:04AM 36.1906 -82.6831 218° Southwest 304 350 11,200  Level Atlanta Center
08:05AM 36.0828 -82.7672 219° Southwest  Level FlightAware Approximate
08:05AM 36.1122 -82.7614 219° Southwest 350 403 13,600  Level Atlanta Center
08:06AM 36.0173 -82.8247 202° Southwest  Level FlightAware Approximate
08:06AM 36.0336 -82.8397 219° Southwest 373 429 15,700  Level Atlanta Center
08:07AM 35.9517 -82.8818 219° Southwest  Level FlightAware Approximate
08:07AM 35.9467 -82.9178 216° Southwest 378 435 17,500  Level Atlanta Center
08:08AM 35.8578 -82.9933 215° Southwest 391 450 19,500 1,920 Climbing Atlanta Center
08:09AM 35.7686 -83.0636 213° Southwest 396 456 21,400 1,200 Climbing Atlanta Center
08:10AM 35.6561 -83.0931 192° South 396 456 22,000 300 Climbing Atlanta Center
08:11AM 35.5397 -83.1225 192° South 422 486 22,000  Level Atlanta Center
08:12AM 35.4333 -83.1492 192° South 413 475 22,000  Level Atlanta Center
08:13AM 35.3208 -83.1658 187° South 385 443 22,000  Level Atlanta Center
08:14AM 35.2208 -83.1819 187° South 368 423 22,000  Level Atlanta Center
08:15AM 35.1311 -83.2006 190° South 368 423 22,000  Level Atlanta Center
08:16AM 35.0333 -83.2219 190° South 368 423 22,000  Level Atlanta Center
08:17AM 34.9311 -83.2433 190° South 368 423 22,000  Level Atlanta Center
08:18AM 34.8333 -83.2644 190° South 374 430 22,000  Level Atlanta Center
08:19AM 34.7292 -83.2881 191° South 374 430 22,000  Level Atlanta Center
08:20AM 34.6250 -83.3522 207° Southwest 374 430 22,000  Level Atlanta Center
08:21AM 34.5442 -83.4386 221° Southwest 387 445 22,000 -120 Level Atlanta Center
08:22AM 34.4589 -83.5172 217° Southwest 391 450 21,800 -1,260 Descending Atlanta Center
08:23AM 34.3717 -83.5883 214° Southwest 391 450 19,500 -2,160 Descending Atlanta Center
08:24AM 34.2903 -83.6617 217° Southwest 377 434 17,500 -1,620 Descending Atlanta Center
08:25AM 34.2197 -83.7272 218° Southwest 348 400 16,300 -1,380 Descending Atlanta Center
08:26AM 34.1572 -83.7828 216° Southwest 325 374 14,800 -1,200 Descending Atlanta Center
08:27AM 34.0906 -83.8431 217° Southwest 303 349 14,000 -420 Descending Atlanta Center
08:28AM 34.0300 -83.9083 222° Southwest 297 342 14,000 -480 Level Atlanta Center
08:29AM 33.9653 -83.9661 217° Southwest 303 349 13,100 -900 Descending Atlanta Center
08:30AM 33.8986 -84.0189 213° Southwest 293 337 12,200 -600 Descending Atlanta Center
08:31AM 33.8256 -84.0814 215° Southwest 293 337 12,000 -120 Descending Atlanta Center
08:32AM 33.7711 -84.1514 227° Southwest 288 331 12,000  Level Atlanta Center
08:33AM 33.7336 -84.2211 237° Southwest 274 315 12,100  Climbing Atlanta Center
08:34AM 33.7167 -84.2961 255° West 245 282 12,000 -780 Descending Atlanta Center
08:35AM 33.7208 -84.3783 274° West 241 277 10,600 -1,260 Descending Atlanta Center
08:36AM 33.7167 -84.4500 266° West 237 273 9,500 -1,200 Descending Atlanta TRACON
08:37AM 33.7167 -84.5333 270° West 219 252 8,300 -1,320 Descending Atlanta TRACON
08:38AM 33.7167 -84.6167 270° West 222 255 6,800 -1,320 Descending Atlanta TRACON
08:39AM 33.7333 -84.6833 287° West 222 255 5,700 -960 Descending Atlanta TRACON
08:40AM 33.7333 -84.7500 270° West 218 251 5,000 -360 Descending Atlanta TRACON
08:41AM 33.7333 -84.8167 270° West 221 254 5,000  Level Atlanta TRACON
08:42AM 33.7167 -84.9000 257° West 225 259 5,100  Climbing Atlanta TRACON
08:43AM 33.6667 -84.9000 180° South 217 250 5,000 -60 Descending Atlanta TRACON
08:44AM 33.6500 -84.8333 107° East 221 254 5,000  Level Atlanta TRACON
08:45AM 33.6500 -84.7667 90° East 190 219 5,000  Level Atlanta TRACON
08:46AM 33.6500 -84.7000 90° East 187 215 5,000 -360 Level Atlanta TRACON
08:47AM 33.6500 -84.6333 90° East 189 217 4,300 -840 Descending Atlanta TRACON
08:48AM 33.6500 -84.5833 90° East 171 197 3,400 -900 Descending Atlanta TRACON
08:49AM 33.6500 -84.5333 90° East 137 158 2,500 -780 Descending Atlanta TRACON
08:50AM 33.6500 -84.4833 90° East 125 144 1,900 -720 Descending Atlanta TRACON
08:51AM 33.6500 -84.4500 90° East 127 146 1,100 -780 Descending Atlanta TRACON